< Typhoon 195220 1952 Season Typhoon 195222 >
Typhoon 195221 (BESS)
General InformationTrack Information on Google Maps || Disaster Info.ResourceGoogle EarthGE AnimationAtom FeedGeoJSON
Detalied Best Track (Time Zone = UTC)
Year Month Day Hour Lat. Long. Pressure (hPa) Wind (kt) Class Image Chart
1952 11 6 18 8.1 150.0 1008 0 2 -- Chart
1952 11 7 00 8.4 149.4 1006 0 2 -- Chart
1952 11 7 06 8.9 148.8 1006 0 2 -- Chart
1952 11 7 12 9.3 148.2 1006 0 2 -- Chart
1952 11 7 18 10.0 147.5 1006 0 2 -- Chart
1952 11 8 00 10.7 147.2 1006 0 2 -- Chart
1952 11 8 06 11.4 147.0 1004 0 2 -- Chart
1952 11 8 12 12.1 146.9 1002 0 2 -- Chart
1952 11 8 18 12.8 146.7 1000 0 2 -- Chart
1952 11 9 00 13.4 146.1 1000 0 2 -- Chart
1952 11 9 06 14.5 144.0 1000 0 9 -- Chart
1952 11 9 12 15.3 142.2 995 0 9 -- Chart
1952 11 9 18 16.0 140.2 985 0 9 -- Chart
1952 11 10 00 16.2 138.3 980 0 9 -- Chart
1952 11 10 06 16.2 136.5 978 0 9 -- Chart
1952 11 10 12 16.2 134.8 945 0 9 -- Chart
1952 11 10 18 16.2 133.2 920 0 9 -- Chart
1952 11 11 00 16.2 131.6 915 0 9 -- Chart
1952 11 11 06 16.2 130.2 915 0 9 -- Chart
1952 11 11 12 16.2 128.7 920 0 9 -- Chart
1952 11 11 18 16.2 127.2 920 0 9 -- Chart
1952 11 12 00 16.3 125.8 920 0 9 -- Chart
1952 11 12 06 16.6 124.2 925 0 9 -- Chart
1952 11 12 12 17.4 123.3 935 0 9 -- Chart
1952 11 12 18 18.8 123.0 935 0 9 -- Chart
1952 11 13 00 19.8 122.1 935 0 9 -- Chart
1952 11 13 06 20.7 121.0 945 0 9 -- Chart
1952 11 13 12 21.5 120.3 960 0 9 -- Chart
1952 11 13 18 22.4 119.6 970 0 9 -- Chart
1952 11 14 00 24.2 119.5 980 0 9 -- Chart
1952 11 14 06 24.7 120.0 990 0 9 -- Chart
1952 11 14 12 25.7 122.1 995 0 9 -- Chart
1952 11 14 18 27.0 124.2 995 0 9 -- Chart
1952 11 15 00 27.8 126.5 1000 0 9 -- Chart
1952 11 15 06 28.8 129.1 1002 0 9 -- Chart
1952 11 15 12 30.6 133.6 1008 0 6 -- Chart
1952 11 15 18 30.8 138.4 1008 0 6 -- Chart
1952 11 16 00 30.9 142.8 1008 0 6 -- Chart
1952 11 16 06 31.0 147.0 1008 0 6 -- Chart
1952 11 16 12 31.0 150.0 1008 0 6 -- Chart
1952 11 16 18 31.0 153.0 1010 0 6 -- Chart
1952 11 17 00 31.0 156.0 1014 0 6 -- Chart
Japan Meteorological Agency Best Track Data | Correction Date : 1989-06-01
< Typhoon 195220 1952 Season Typhoon 195222 >

Help